sensor_id;sensor_type;location;lat;lon;timestamp;temperature;humidity
298;DHT22;133;49.626;9.680;2023-06-22T00:00:50;20.70;94.40
298;DHT22;133;49.626;9.680;2023-06-22T00:03:21;20.70;94.30
298;DHT22;133;49.626;9.680;2023-06-22T00:05:48;20.70;94.10
298;DHT22;133;49.626;9.680;2023-06-22T00:08:14;20.60;94.20
298;DHT22;133;49.626;9.680;2023-06-22T00:10:39;20.50;94.60
298;DHT22;133;49.626;9.680;2023-06-22T00:13:07;20.60;94.60
298;DHT22;133;49.626;9.680;2023-06-22T00:15:33;20.50;95.00
298;DHT22;133;49.626;9.680;2023-06-22T00:17:59;20.60;95.10
298;DHT22;133;49.626;9.680;2023-06-22T00:20:28;20.60;95.00
298;DHT22;133;49.626;9.680;2023-06-22T00:22:57;20.70;94.80
298;DHT22;133;49.626;9.680;2023-06-22T00:25:23;20.70;95.00
298;DHT22;133;49.626;9.680;2023-06-22T00:27:49;20.80;94.40
298;DHT22;133;49.626;9.680;2023-06-22T00:30:16;20.50;95.30
298;DHT22;133;49.626;9.680;2023-06-22T00:32:43;20.40;95.70
298;DHT22;133;49.626;9.680;2023-06-22T00:35:09;20.50;95.50
298;DHT22;133;49.626;9.680;2023-06-22T00:37:36;20.50;95.40
298;DHT22;133;49.626;9.680;2023-06-22T00:40:02;20.50;95.20
298;DHT22;133;49.626;9.680;2023-06-22T00:42:29;20.50;95.20
298;DHT22;133;49.626;9.680;2023-06-22T00:44:54;20.50;94.80
298;DHT22;133;49.626;9.680;2023-06-22T00:47:20;20.50;94.90
298;DHT22;133;49.626;9.680;2023-06-22T00:49:48;20.50;94.90
298;DHT22;133;49.626;9.680;2023-06-22T00:52:17;20.40;95.10
298;DHT22;133;49.626;9.680;2023-06-22T00:54:49;20.40;95.30
298;DHT22;133;49.626;9.680;2023-06-22T00:57:17;20.40;95.30
298;DHT22;133;49.626;9.680;2023-06-22T00:59:47;20.40;95.20
298;DHT22;133;49.626;9.680;2023-06-22T01:02:13;20.40;95.40
298;DHT22;133;49.626;9.680;2023-06-22T01:04:39;20.40;95.50
298;DHT22;133;49.626;9.680;2023-06-22T01:09:59;20.40;95.60
298;DHT22;133;49.626;9.680;2023-06-22T01:12:28;20.40;95.60
298;DHT22;133;49.626;9.680;2023-06-22T01:15:06;20.50;95.50
298;DHT22;133;49.626;9.680;2023-06-22T01:17:34;20.50;95.30
298;DHT22;133;49.626;9.680;2023-06-22T01:20:01;20.50;95.20
298;DHT22;133;49.626;9.680;2023-06-22T01:22:31;20.50;95.10
298;DHT22;133;49.626;9.680;2023-06-22T01:25:10;20.40;94.70
298;DHT22;133;49.626;9.680;2023-06-22T01:27:55;20.40;94.50
298;DHT22;133;49.626;9.680;2023-06-22T01:30:23;20.40;94.50
298;DHT22;133;49.626;9.680;2023-06-22T01:32:51;20.40;94.80
298;DHT22;133;49.626;9.680;2023-06-22T01:35:18;20.40;95.10
298;DHT22;133;49.626;9.680;2023-06-22T01:37:44;20.40;95.10
298;DHT22;133;49.626;9.680;2023-06-22T01:40:11;20.20;95.40
298;DHT22;133;49.626;9.680;2023-06-22T01:42:37;19.90;96.40
298;DHT22;133;49.626;9.680;2023-06-22T01:45:04;19.50;98.00
298;DHT22;133;49.626;9.680;2023-06-22T01:47:31;19.40;98.50
298;DHT22;133;49.626;9.680;2023-06-22T01:49:57;19.40;98.60
298;DHT22;133;49.626;9.680;2023-06-22T01:52:23;19.40;98.70
298;DHT22;133;49.626;9.680;2023-06-22T01:54:48;19.60;98.70
298;DHT22;133;49.626;9.680;2023-06-22T01:57:14;19.70;98.70
298;DHT22;133;49.626;9.680;2023-06-22T02:00:03;19.80;98.70
298;DHT22;133;49.626;9.680;2023-06-22T02:03:14;20.00;98.70
298;DHT22;133;49.626;9.680;2023-06-22T02:05:52;20.00;98.70
298;DHT22;133;49.626;9.680;2023-06-22T02:08:23;20.10;98.70
298;DHT22;133;49.626;9.680;2023-06-22T02:10:51;20.20;98.70
298;DHT22;133;49.626;9.680;2023-06-22T02:13:18;20.20;98.60
298;DHT22;133;49.626;9.680;2023-06-22T02:15:45;20.30;98.70
298;DHT22;133;49.626;9.680;2023-06-22T02:18:12;20.30;98.70
298;DHT22;133;49.626;9.680;2023-06-22T02:20:39;20.20;98.70
298;DHT22;133;49.626;9.680;2023-06-22T02:23:06;20.10;98.70
298;DHT22;133;49.626;9.680;2023-06-22T02:25:32;20.10;98.70
298;DHT22;133;49.626;9.680;2023-06-22T02:27:58;20.00;98.70
298;DHT22;133;49.626;9.680;2023-06-22T02:30:24;19.90;98.70
298;DHT22;133;49.626;9.680;2023-06-22T02:32:49;19.80;98.70
298;DHT22;133;49.626;9.680;2023-06-22T02:35:24;19.80;98.70
298;DHT22;133;49.626;9.680;2023-06-22T02:37:50;19.70;98.70
298;DHT22;133;49.626;9.680;2023-06-22T02:40:17;19.70;98.70
298;DHT22;133;49.626;9.680;2023-06-22T02:42:43;19.70;98.70
298;DHT22;133;49.626;9.680;2023-06-22T02:45:09;19.70;98.70
298;DHT22;133;49.626;9.680;2023-06-22T02:47:35;19.70;98.70
298;DHT22;133;49.626;9.680;2023-06-22T02:50:00;19.80;98.70
298;DHT22;133;49.626;9.680;2023-06-22T02:52:26;19.80;98.70
298;DHT22;133;49.626;9.680;2023-06-22T02:54:52;19.80;98.70
298;DHT22;133;49.626;9.680;2023-06-22T02:57:18;19.80;98.70
298;DHT22;133;49.626;9.680;2023-06-22T02:59:43;19.80;98.70
298;DHT22;133;49.626;9.680;2023-06-22T03:02:09;19.80;98.70
298;DHT22;133;49.626;9.680;2023-06-22T03:04:35;19.80;98.70
298;DHT22;133;49.626;9.680;2023-06-22T03:07:01;19.70;98.70
298;DHT22;133;49.626;9.680;2023-06-22T03:09:28;19.70;98.70
298;DHT22;133;49.626;9.680;2023-06-22T03:11:57;19.70;98.70
298;DHT22;133;49.626;9.680;2023-06-22T03:14:22;19.70;98.70
298;DHT22;133;49.626;9.680;2023-06-22T03:16:48;19.70;98.70
298;DHT22;133;49.626;9.680;2023-06-22T03:19:14;19.70;98.70
298;DHT22;133;49.626;9.680;2023-06-22T03:21:40;19.70;98.70
298;DHT22;133;49.626;9.680;2023-06-22T03:24:06;19.70;98.70
298;DHT22;133;49.626;9.680;2023-06-22T03:26:33;19.70;98.70
298;DHT22;133;49.626;9.680;2023-06-22T03:28:58;19.80;98.70
298;DHT22;133;49.626;9.680;2023-06-22T03:31:24;19.80;98.70
298;DHT22;133;49.626;9.680;2023-06-22T03:33:50;19.80;98.70
298;DHT22;133;49.626;9.680;2023-06-22T03:36:16;19.80;98.70
298;DHT22;133;49.626;9.680;2023-06-22T03:38:47;19.80;98.70
298;DHT22;133;49.626;9.680;2023-06-22T03:41:13;19.80;98.70
298;DHT22;133;49.626;9.680;2023-06-22T03:43:39;19.80;98.70
298;DHT22;133;49.626;9.680;2023-06-22T03:46:05;19.80;98.70
298;DHT22;133;49.626;9.680;2023-06-22T03:48:31;19.90;98.70
298;DHT22;133;49.626;9.680;2023-06-22T03:50:56;19.90;98.70
298;DHT22;133;49.626;9.680;2023-06-22T03:53:22;19.90;98.70
298;DHT22;133;49.626;9.680;2023-06-22T03:55:49;20.00;98.70
298;DHT22;133;49.626;9.680;2023-06-22T03:58:16;19.90;98.70
298;DHT22;133;49.626;9.680;2023-06-22T04:00:50;19.90;98.70
298;DHT22;133;49.626;9.680;2023-06-22T04:03:16;19.90;98.70
298;DHT22;133;49.626;9.680;2023-06-22T04:05:45;19.80;98.70
298;DHT22;133;49.626;9.680;2023-06-22T04:08:12;19.80;98.70
298;DHT22;133;49.626;9.680;2023-06-22T04:10:38;19.90;98.70
298;DHT22;133;49.626;9.680;2023-06-22T04:13:04;19.90;98.70
298;DHT22;133;49.626;9.680;2023-06-22T04:15:29;19.90;98.70
298;DHT22;133;49.626;9.680;2023-06-22T04:17:55;19.90;98.70
298;DHT22;133;49.626;9.680;2023-06-22T04:20:22;20.00;98.70
298;DHT22;133;49.626;9.680;2023-06-22T04:22:47;20.00;98.70
298;DHT22;133;49.626;9.680;2023-06-22T04:25:14;20.00;98.70
298;DHT22;133;49.626;9.680;2023-06-22T04:27:39;20.00;98.70
298;DHT22;133;49.626;9.680;2023-06-22T04:30:08;20.10;98.70
298;DHT22;133;49.626;9.680;2023-06-22T04:32:35;20.00;98.70
298;DHT22;133;49.626;9.680;2023-06-22T04:35:05;20.00;98.70
298;DHT22;133;49.626;9.680;2023-06-22T04:37:32;20.10;98.70
298;DHT22;133;49.626;9.680;2023-06-22T04:39:57;20.20;98.70
298;DHT22;133;49.626;9.680;2023-06-22T04:42:25;20.20;98.70
298;DHT22;133;49.626;9.680;2023-06-22T04:44:51;20.20;98.70
298;DHT22;133;49.626;9.680;2023-06-22T04:47:16;20.30;98.70
298;DHT22;133;49.626;9.680;2023-06-22T04:49:42;20.30;98.70
298;DHT22;133;49.626;9.680;2023-06-22T04:52:10;20.30;98.70
298;DHT22;133;49.626;9.680;2023-06-22T04:54:37;20.40;98.70
298;DHT22;133;49.626;9.680;2023-06-22T04:57:05;20.50;98.70
298;DHT22;133;49.626;9.680;2023-06-22T04:59:35;20.60;98.70
298;DHT22;133;49.626;9.680;2023-06-22T05:02:01;20.50;98.70
298;DHT22;133;49.626;9.680;2023-06-22T05:04:29;20.50;98.70
298;DHT22;133;49.626;9.680;2023-06-22T05:06:57;20.50;98.70
298;DHT22;133;49.626;9.680;2023-06-22T05:09:23;20.60;98.70
298;DHT22;133;49.626;9.680;2023-06-22T05:11:51;20.60;98.70
298;DHT22;133;49.626;9.680;2023-06-22T05:14:17;20.60;98.70
298;DHT22;133;49.626;9.680;2023-06-22T05:16:44;20.70;98.70
298;DHT22;133;49.626;9.680;2023-06-22T05:19:10;20.70;98.70
298;DHT22;133;49.626;9.680;2023-06-22T05:21:36;20.80;98.70
298;DHT22;133;49.626;9.680;2023-06-22T05:24:02;20.90;98.70
298;DHT22;133;49.626;9.680;2023-06-22T05:26:30;20.90;98.70
298;DHT22;133;49.626;9.680;2023-06-22T05:28:56;20.90;98.70
298;DHT22;133;49.626;9.680;2023-06-22T05:31:22;20.90;98.50
298;DHT22;133;49.626;9.680;2023-06-22T05:33:50;20.90;98.60
298;DHT22;133;49.626;9.680;2023-06-22T05:36:16;21.00;98.70
298;DHT22;133;49.626;9.680;2023-06-22T05:38:42;21.10;98.40
298;DHT22;133;49.626;9.680;2023-06-22T05:41:08;21.10;98.20
298;DHT22;133;49.626;9.680;2023-06-22T05:43:34;21.20;98.20
298;DHT22;133;49.626;9.680;2023-06-22T05:46:04;21.30;98.00
298;DHT22;133;49.626;9.680;2023-06-22T05:48:30;21.30;98.00
298;DHT22;133;49.626;9.680;2023-06-22T05:50:56;21.30;97.70
298;DHT22;133;49.626;9.680;2023-06-22T05:53:22;21.40;97.80
298;DHT22;133;49.626;9.680;2023-06-22T05:55:48;21.40;98.00
298;DHT22;133;49.626;9.680;2023-06-22T05:58:13;21.50;97.90
298;DHT22;133;49.626;9.680;2023-06-22T06:00:39;21.60;97.70
298;DHT22;133;49.626;9.680;2023-06-22T06:03:07;21.70;97.20
298;DHT22;133;49.626;9.680;2023-06-22T06:05:33;21.80;97.10
298;DHT22;133;49.626;9.680;2023-06-22T06:08:04;21.80;97.00
298;DHT22;133;49.626;9.680;2023-06-22T06:10:31;21.90;96.70
298;DHT22;133;49.626;9.680;2023-06-22T06:12:57;22.00;96.50
298;DHT22;133;49.626;9.680;2023-06-22T06:15:23;22.10;96.40
298;DHT22;133;49.626;9.680;2023-06-22T06:17:50;22.20;96.40
298;DHT22;133;49.626;9.680;2023-06-22T06:20:18;22.30;96.20
298;DHT22;133;49.626;9.680;2023-06-22T06:22:44;22.40;95.80
298;DHT22;133;49.626;9.680;2023-06-22T06:25:10;22.40;95.50
298;DHT22;133;49.626;9.680;2023-06-22T06:27:43;22.50;95.60
298;DHT22;133;49.626;9.680;2023-06-22T06:30:10;22.50;95.30
298;DHT22;133;49.626;9.680;2023-06-22T06:32:36;22.50;95.20
298;DHT22;133;49.626;9.680;2023-06-22T06:35:06;22.60;95.20
298;DHT22;133;49.626;9.680;2023-06-22T06:37:37;22.70;94.90
298;DHT22;133;49.626;9.680;2023-06-22T06:40:04;22.80;94.70
298;DHT22;133;49.626;9.680;2023-06-22T06:42:32;22.90;94.60
298;DHT22;133;49.626;9.680;2023-06-22T06:44:58;22.90;94.10
298;DHT22;133;49.626;9.680;2023-06-22T06:47:25;23.00;94.30
298;DHT22;133;49.626;9.680;2023-06-22T06:49:50;23.00;94.10
298;DHT22;133;49.626;9.680;2023-06-22T06:52:16;23.10;94.00
298;DHT22;133;49.626;9.680;2023-06-22T06:54:41;23.10;93.80
298;DHT22;133;49.626;9.680;2023-06-22T06:57:07;23.30;93.70
298;DHT22;133;49.626;9.680;2023-06-22T06:59:36;23.40;93.50
298;DHT22;133;49.626;9.680;2023-06-22T07:02:02;23.40;93.40
298;DHT22;133;49.626;9.680;2023-06-22T07:04:27;23.50;92.80
298;DHT22;133;49.626;9.680;2023-06-22T07:06:53;23.60;92.80
298;DHT22;133;49.626;9.680;2023-06-22T07:09:19;23.60;92.40
298;DHT22;133;49.626;9.680;2023-06-22T07:11:45;23.70;91.80
298;DHT22;133;49.626;9.680;2023-06-22T07:14:10;23.80;91.80
298;DHT22;133;49.626;9.680;2023-06-22T07:16:36;23.90;91.90
298;DHT22;133;49.626;9.680;2023-06-22T07:19:02;23.90;91.60
298;DHT22;133;49.626;9.680;2023-06-22T07:21:28;24.00;91.10
298;DHT22;133;49.626;9.680;2023-06-22T07:23:53;24.00;90.50
298;DHT22;133;49.626;9.680;2023-06-22T07:26:20;24.10;91.20
298;DHT22;133;49.626;9.680;2023-06-22T07:28:46;24.10;90.20
298;DHT22;133;49.626;9.680;2023-06-22T07:31:11;24.20;89.80
298;DHT22;133;49.626;9.680;2023-06-22T07:33:37;24.20;90.30
298;DHT22;133;49.626;9.680;2023-06-22T07:36:03;24.30;89.90
298;DHT22;133;49.626;9.680;2023-06-22T07:38:33;24.40;89.10
298;DHT22;133;49.626;9.680;2023-06-22T07:40:59;24.40;89.00
298;DHT22;133;49.626;9.680;2023-06-22T07:43:35;24.50;88.60
298;DHT22;133;49.626;9.680;2023-06-22T07:46:05;24.50;88.60
298;DHT22;133;49.626;9.680;2023-06-22T07:48:31;24.60;87.50
298;DHT22;133;49.626;9.680;2023-06-22T07:50:57;24.60;87.60
298;DHT22;133;49.626;9.680;2023-06-22T07:53:23;24.60;87.70
298;DHT22;133;49.626;9.680;2023-06-22T07:55:49;24.70;88.10
298;DHT22;133;49.626;9.680;2023-06-22T07:58:15;24.80;87.40
298;DHT22;133;49.626;9.680;2023-06-22T08:00:41;24.90;87.00
298;DHT22;133;49.626;9.680;2023-06-22T08:03:07;25.00;87.20
298;DHT22;133;49.626;9.680;2023-06-22T08:05:33;25.10;86.60
298;DHT22;133;49.626;9.680;2023-06-22T08:07:58;25.30;86.90
298;DHT22;133;49.626;9.680;2023-06-22T08:10:24;25.50;86.60
298;DHT22;133;49.626;9.680;2023-06-22T08:12:51;25.60;86.70
298;DHT22;133;49.626;9.680;2023-06-22T08:15:18;25.70;85.90
298;DHT22;133;49.626;9.680;2023-06-22T08:17:44;25.70;84.10
298;DHT22;133;49.626;9.680;2023-06-22T08:20:11;25.70;83.50
298;DHT22;133;49.626;9.680;2023-06-22T08:22:38;25.70;83.40
298;DHT22;133;49.626;9.680;2023-06-22T08:25:04;25.90;84.40
298;DHT22;133;49.626;9.680;2023-06-22T08:27:30;26.00;84.00
298;DHT22;133;49.626;9.680;2023-06-22T08:30:00;26.20;83.60
298;DHT22;133;49.626;9.680;2023-06-22T08:32:29;26.30;83.30
298;DHT22;133;49.626;9.680;2023-06-22T08:34:55;26.50;83.10
298;DHT22;133;49.626;9.680;2023-06-22T08:37:22;26.60;82.40
298;DHT22;133;49.626;9.680;2023-06-22T08:39:59;26.90;81.20
298;DHT22;133;49.626;9.680;2023-06-22T08:42:24;27.20;80.20
298;DHT22;133;49.626;9.680;2023-06-22T08:44:51;27.60;79.90
298;DHT22;133;49.626;9.680;2023-06-22T08:47:17;28.50;78.20
298;DHT22;133;49.626;9.680;2023-06-22T08:49:43;29.70;75.40
298;DHT22;133;49.626;9.680;2023-06-22T08:52:11;31.20;71.00
298;DHT22;133;49.626;9.680;2023-06-22T08:54:37;32.80;66.00
298;DHT22;133;49.626;9.680;2023-06-22T08:57:03;34.20;63.70
298;DHT22;133;49.626;9.680;2023-06-22T08:59:29;35.10;61.10
298;DHT22;133;49.626;9.680;2023-06-22T09:01:54;35.50;60.00
298;DHT22;133;49.626;9.680;2023-06-22T09:04:20;36.50;58.40
298;DHT22;133;49.626;9.680;2023-06-22T09:06:48;37.30;56.50
298;DHT22;133;49.626;9.680;2023-06-22T09:09:18;38.10;54.50
298;DHT22;133;49.626;9.680;2023-06-22T09:11:44;39.00;52.80
298;DHT22;133;49.626;9.680;2023-06-22T09:14:11;39.60;52.10
298;DHT22;133;49.626;9.680;2023-06-22T09:16:39;39.70;51.00
298;DHT22;133;49.626;9.680;2023-06-22T09:19:11;39.90;50.40
298;DHT22;133;49.626;9.680;2023-06-22T09:21:37;40.50;50.20
298;DHT22;133;49.626;9.680;2023-06-22T09:24:03;40.30;49.00
298;DHT22;133;49.626;9.680;2023-06-22T09:26:29;40.70;49.40
298;DHT22;133;49.626;9.680;2023-06-22T09:28:55;40.90;48.50
298;DHT22;133;49.626;9.680;2023-06-22T09:31:21;40.70;48.50
298;DHT22;133;49.626;9.680;2023-06-22T09:33:53;41.40;47.50
298;DHT22;133;49.626;9.680;2023-06-22T09:36:22;41.80;47.70
298;DHT22;133;49.626;9.680;2023-06-22T09:38:48;41.40;47.40
298;DHT22;133;49.626;9.680;2023-06-22T09:41:14;41.10;48.20
298;DHT22;133;49.626;9.680;2023-06-22T09:43:39;41.80;47.90
298;DHT22;133;49.626;9.680;2023-06-22T09:46:06;41.80;46.20
298;DHT22;133;49.626;9.680;2023-06-22T09:48:32;41.60;46.70
298;DHT22;133;49.626;9.680;2023-06-22T09:50:58;41.00;47.20
298;DHT22;133;49.626;9.680;2023-06-22T09:53:30;40.40;47.70
298;DHT22;133;49.626;9.680;2023-06-22T09:55:56;40.60;46.90
298;DHT22;133;49.626;9.680;2023-06-22T09:58:27;40.30;48.30
298;DHT22;133;49.626;9.680;2023-06-22T10:00:53;39.80;48.20
298;DHT22;133;49.626;9.680;2023-06-22T10:03:20;40.10;47.60
298;DHT22;133;49.626;9.680;2023-06-22T10:05:48;39.80;48.60
298;DHT22;133;49.626;9.680;2023-06-22T10:08:17;38.90;49.30
298;DHT22;133;49.626;9.680;2023-06-22T10:10:43;38.20;50.90
298;DHT22;133;49.626;9.680;2023-06-22T10:13:10;38.50;49.30
298;DHT22;133;49.626;9.680;2023-06-22T10:15:36;37.90;51.20
298;DHT22;133;49.626;9.680;2023-06-22T10:18:02;37.40;51.30
298;DHT22;133;49.626;9.680;2023-06-22T10:20:28;36.80;53.00
298;DHT22;133;49.626;9.680;2023-06-22T10:22:54;36.60;54.00
298;DHT22;133;49.626;9.680;2023-06-22T10:25:21;36.40;53.90
298;DHT22;133;49.626;9.680;2023-06-22T10:27:54;36.80;52.60
298;DHT22;133;49.626;9.680;2023-06-22T10:30:20;37.00;52.70
298;DHT22;133;49.626;9.680;2023-06-22T10:32:49;37.50;51.10
298;DHT22;133;49.626;9.680;2023-06-22T10:35:15;38.00;51.20
298;DHT22;133;49.626;9.680;2023-06-22T10:37:45;38.60;49.70
298;DHT22;133;49.626;9.680;2023-06-22T10:40:12;39.10;50.10
298;DHT22;133;49.626;9.680;2023-06-22T10:42:38;39.00;49.40
298;DHT22;133;49.626;9.680;2023-06-22T10:45:05;39.30;48.20
298;DHT22;133;49.626;9.680;2023-06-22T10:47:30;39.60;48.50
298;DHT22;133;49.626;9.680;2023-06-22T10:49:56;38.70;49.50
298;DHT22;133;49.626;9.680;2023-06-22T10:52:22;38.90;48.60
298;DHT22;133;49.626;9.680;2023-06-22T10:54:48;39.40;49.00
298;DHT22;133;49.626;9.680;2023-06-22T10:57:14;39.20;49.50
298;DHT22;133;49.626;9.680;2023-06-22T10:59:40;39.50;48.50
298;DHT22;133;49.626;9.680;2023-06-22T11:02:06;40.00;49.20
298;DHT22;133;49.626;9.680;2023-06-22T11:04:31;40.00;48.40
298;DHT22;133;49.626;9.680;2023-06-22T11:06:57;40.00;48.20
298;DHT22;133;49.626;9.680;2023-06-22T11:09:23;40.50;46.90
298;DHT22;133;49.626;9.680;2023-06-22T11:11:50;40.50;47.70
298;DHT22;133;49.626;9.680;2023-06-22T11:14:16;39.70;48.70
298;DHT22;133;49.626;9.680;2023-06-22T11:16:42;39.80;47.40
298;DHT22;133;49.626;9.680;2023-06-22T11:19:08;40.00;47.30
298;DHT22;133;49.626;9.680;2023-06-22T11:21:34;39.70;47.50
298;DHT22;133;49.626;9.680;2023-06-22T11:24:02;39.10;47.70
298;DHT22;133;49.626;9.680;2023-06-22T11:26:28;38.50;49.10
298;DHT22;133;49.626;9.680;2023-06-22T11:28:54;37.60;51.10
298;DHT22;133;49.626;9.680;2023-06-22T11:31:19;37.30;52.20
298;DHT22;133;49.626;9.680;2023-06-22T11:33:45;37.10;51.60
298;DHT22;133;49.626;9.680;2023-06-22T11:36:12;37.10;51.70
298;DHT22;133;49.626;9.680;2023-06-22T11:38:38;37.00;52.40
298;DHT22;133;49.626;9.680;2023-06-22T11:41:08;37.10;51.80
298;DHT22;133;49.626;9.680;2023-06-22T11:43:34;37.20;53.00
298;DHT22;133;49.626;9.680;2023-06-22T11:46:01;37.60;50.80
298;DHT22;133;49.626;9.680;2023-06-22T11:48:28;38.30;49.90
298;DHT22;133;49.626;9.680;2023-06-22T11:50:54;38.20;49.60
298;DHT22;133;49.626;9.680;2023-06-22T11:53:21;38.20;50.20
298;DHT22;133;49.626;9.680;2023-06-22T11:55:50;38.00;49.50
298;DHT22;133;49.626;9.680;2023-06-22T11:58:16;38.40;48.30
298;DHT22;133;49.626;9.680;2023-06-22T12:00:42;38.30;49.10
298;DHT22;133;49.626;9.680;2023-06-22T12:03:34;38.00;50.10
298;DHT22;133;49.626;9.680;2023-06-22T12:06:03;37.70;51.80
298;DHT22;133;49.626;9.680;2023-06-22T12:08:29;37.80;51.50
298;DHT22;133;49.626;9.680;2023-06-22T12:10:58;38.40;50.30
298;DHT22;133;49.626;9.680;2023-06-22T12:13:26;38.80;50.30
298;DHT22;133;49.626;9.680;2023-06-22T12:15:58;38.90;50.50
298;DHT22;133;49.626;9.680;2023-06-22T12:18:24;38.90;49.80
298;DHT22;133;49.626;9.680;2023-06-22T12:20:50;38.90;48.40
298;DHT22;133;49.626;9.680;2023-06-22T12:23:19;38.90;48.70
298;DHT22;133;49.626;9.680;2023-06-22T12:25:45;38.10;50.00
298;DHT22;133;49.626;9.680;2023-06-22T12:28:11;38.10;51.20
298;DHT22;133;49.626;9.680;2023-06-22T12:30:37;37.70;51.20
298;DHT22;133;49.626;9.680;2023-06-22T12:33:03;37.40;52.20
298;DHT22;133;49.626;9.680;2023-06-22T12:35:28;37.20;51.90
298;DHT22;133;49.626;9.680;2023-06-22T12:37:56;37.30;52.10
298;DHT22;133;49.626;9.680;2023-06-22T12:40:22;37.10;52.90
298;DHT22;133;49.626;9.680;2023-06-22T12:42:48;36.80;53.10
298;DHT22;133;49.626;9.680;2023-06-22T12:45:15;36.50;53.20
298;DHT22;133;49.626;9.680;2023-06-22T12:47:41;36.20;53.90
298;DHT22;133;49.626;9.680;2023-06-22T12:50:07;35.70;54.70
298;DHT22;133;49.626;9.680;2023-06-22T12:52:33;35.30;55.60
298;DHT22;133;49.626;9.680;2023-06-22T12:54:59;34.90;57.20
298;DHT22;133;49.626;9.680;2023-06-22T12:57:25;34.40;58.50
298;DHT22;133;49.626;9.680;2023-06-22T12:59:51;34.20;60.40
298;DHT22;133;49.626;9.680;2023-06-22T13:02:26;34.10;60.00
298;DHT22;133;49.626;9.680;2023-06-22T13:04:52;33.90;59.30
298;DHT22;133;49.626;9.680;2023-06-22T13:07:17;33.90;59.80
298;DHT22;133;49.626;9.680;2023-06-22T13:09:43;33.90;59.10
298;DHT22;133;49.626;9.680;2023-06-22T13:14:54;33.90;58.60
298;DHT22;133;49.626;9.680;2023-06-22T13:17:20;33.80;58.70
298;DHT22;133;49.626;9.680;2023-06-22T13:19:48;33.80;59.00
298;DHT22;133;49.626;9.680;2023-06-22T13:23:12;34.00;58.60
298;DHT22;133;49.626;9.680;2023-06-22T13:25:28;34.20;57.70
298;DHT22;133;49.626;9.680;2023-06-22T13:27:54;34.50;57.90
298;DHT22;133;49.626;9.680;2023-06-22T13:30:20;34.90;57.50
298;DHT22;133;49.626;9.680;2023-06-22T13:32:52;35.00;57.90
298;DHT22;133;49.626;9.680;2023-06-22T13:35:18;34.90;57.60
298;DHT22;133;49.626;9.680;2023-06-22T13:37:44;35.30;57.30
298;DHT22;133;49.626;9.680;2023-06-22T13:40:10;35.60;56.80
298;DHT22;133;49.626;9.680;2023-06-22T13:42:36;35.90;56.20
298;DHT22;133;49.626;9.680;2023-06-22T13:45:02;36.10;55.30
298;DHT22;133;49.626;9.680;2023-06-22T13:47:29;36.20;54.80
298;DHT22;133;49.626;9.680;2023-06-22T13:49:55;36.20;54.80
298;DHT22;133;49.626;9.680;2023-06-22T13:52:21;36.10;55.80
298;DHT22;133;49.626;9.680;2023-06-22T13:54:59;35.70;56.40
298;DHT22;133;49.626;9.680;2023-06-22T13:57:43;35.20;56.40
298;DHT22;133;49.626;9.680;2023-06-22T14:00:10;34.80;58.30
298;DHT22;133;49.626;9.680;2023-06-22T14:02:38;34.50;58.60
298;DHT22;133;49.626;9.680;2023-06-22T14:05:24;34.20;59.60
298;DHT22;133;49.626;9.680;2023-06-22T14:07:50;34.10;59.70
298;DHT22;133;49.626;9.680;2023-06-22T14:10:49;34.00;59.60
298;DHT22;133;49.626;9.680;2023-06-22T14:13:23;34.00;59.20
298;DHT22;133;49.626;9.680;2023-06-22T14:18:59;34.30;59.30
298;DHT22;133;49.626;9.680;2023-06-22T14:21:26;34.50;59.60
298;DHT22;133;49.626;9.680;2023-06-22T14:27:17;35.00;59.20
298;DHT22;133;49.626;9.680;2023-06-22T14:29:43;35.20;58.00
298;DHT22;133;49.626;9.680;2023-06-22T14:32:15;35.50;57.60
298;DHT22;133;49.626;9.680;2023-06-22T14:34:41;35.60;58.00
298;DHT22;133;49.626;9.680;2023-06-22T14:37:07;35.70;58.10
298;DHT22;133;49.626;9.680;2023-06-22T14:39:35;35.80;56.70
298;DHT22;133;49.626;9.680;2023-06-22T14:42:01;36.10;55.70
298;DHT22;133;49.626;9.680;2023-06-22T14:44:29;36.40;55.30
298;DHT22;133;49.626;9.680;2023-06-22T14:46:55;36.60;54.20
298;DHT22;133;49.626;9.680;2023-06-22T14:49:21;36.50;54.10
298;DHT22;133;49.626;9.680;2023-06-22T14:51:47;36.20;51.10
298;DHT22;133;49.626;9.680;2023-06-22T14:54:13;36.40;51.10
298;DHT22;133;49.626;9.680;2023-06-22T14:56:39;36.70;49.70
298;DHT22;133;49.626;9.680;2023-06-22T14:59:06;37.00;47.70
298;DHT22;133;49.626;9.680;2023-06-22T15:01:32;37.10;46.90
298;DHT22;133;49.626;9.680;2023-06-22T15:03:58;37.00;47.10
298;DHT22;133;49.626;9.680;2023-06-22T15:06:23;37.30;47.80
298;DHT22;133;49.626;9.680;2023-06-22T15:09:25;37.60;45.90
298;DHT22;133;49.626;9.680;2023-06-22T15:12:06;37.60;45.50
298;DHT22;133;49.626;9.680;2023-06-22T15:14:45;37.50;43.30
298;DHT22;133;49.626;9.680;2023-06-22T15:17:11;37.30;42.70
298;DHT22;133;49.626;9.680;2023-06-22T15:19:40;36.70;42.80
298;DHT22;133;49.626;9.680;2023-06-22T15:22:07;36.60;42.10
298;DHT22;133;49.626;9.680;2023-06-22T15:24:34;36.70;42.20
298;DHT22;133;49.626;9.680;2023-06-22T15:27:00;36.80;42.90
298;DHT22;133;49.626;9.680;2023-06-22T15:29:26;36.60;43.30
298;DHT22;133;49.626;9.680;2023-06-22T15:32:01;36.60;43.30
298;DHT22;133;49.626;9.680;2023-06-22T15:34:27;36.60;43.10
298;DHT22;133;49.626;9.680;2023-06-22T15:36:53;36.10;43.00
298;DHT22;133;49.626;9.680;2023-06-22T15:39:18;35.80;43.00
298;DHT22;133;49.626;9.680;2023-06-22T15:41:44;35.00;43.30
298;DHT22;133;49.626;9.680;2023-06-22T15:44:10;34.70;44.20
298;DHT22;133;49.626;9.680;2023-06-22T15:46:36;34.50;44.80
298;DHT22;133;49.626;9.680;2023-06-22T15:49:01;34.40;44.80
298;DHT22;133;49.626;9.680;2023-06-22T15:51:27;34.30;45.30
298;DHT22;133;49.626;9.680;2023-06-22T15:53:54;33.90;45.50
298;DHT22;133;49.626;9.680;2023-06-22T15:56:20;33.80;46.10
298;DHT22;133;49.626;9.680;2023-06-22T15:58:46;33.80;46.80
298;DHT22;133;49.626;9.680;2023-06-22T16:01:12;33.80;46.90
298;DHT22;133;49.626;9.680;2023-06-22T16:03:37;33.70;47.60
298;DHT22;133;49.626;9.680;2023-06-22T16:06:04;33.70;47.80
298;DHT22;133;49.626;9.680;2023-06-22T16:08:30;33.40;47.40
298;DHT22;133;49.626;9.680;2023-06-22T16:10:56;33.30;48.20
298;DHT22;133;49.626;9.680;2023-06-22T16:13:22;33.40;48.00
298;DHT22;133;49.626;9.680;2023-06-22T16:15:47;33.20;48.50
298;DHT22;133;49.626;9.680;2023-06-22T16:18:13;33.20;48.70
298;DHT22;133;49.626;9.680;2023-06-22T16:20:39;32.80;49.60
298;DHT22;133;49.626;9.680;2023-06-22T16:23:05;32.80;50.30
298;DHT22;133;49.626;9.680;2023-06-22T16:25:30;32.60;50.60
298;DHT22;133;49.626;9.680;2023-06-22T16:27:56;32.50;51.00
298;DHT22;133;49.626;9.680;2023-06-22T16:30:22;32.40;51.70
298;DHT22;133;49.626;9.680;2023-06-22T16:32:55;32.30;51.80
298;DHT22;133;49.626;9.680;2023-06-22T16:35:24;32.20;52.50
298;DHT22;133;49.626;9.680;2023-06-22T16:37:52;32.20;52.80
298;DHT22;133;49.626;9.680;2023-06-22T16:40:18;32.20;53.00
298;DHT22;133;49.626;9.680;2023-06-22T16:42:49;32.20;53.40
298;DHT22;133;49.626;9.680;2023-06-22T16:45:16;32.20;53.80
298;DHT22;133;49.626;9.680;2023-06-22T16:47:46;32.30;54.10